Time;durP1;ratioP1;P1;durP2;ratioP2;P2;SDS_P1;SDS_P2;PMS_P1;PMS_P2;Temp;Humidity;BMP_temperature;BMP_pressure;BME280_temperature;BME280_humidity;BME280_pressure;Samples;Min_cycle;Max_cycle;Signal;HPM_P1;HPM_P2
2021/05/23 00:02:09;;;;;;;11.85;2.63;;;8.50;99.90;;;;;;5174369;27;20476;-57
2021/05/23 00:04:35;;;;;;;7.07;2.13;;;8.40;99.90;;;;;;5174513;27;20128;-57
2021/05/23 00:07:01;;;;;;;10.32;2.40;;;8.50;99.90;;;;;;5174448;27;20030;-57
2021/05/23 00:09:27;;;;;;;14.43;2.83;;;8.40;99.90;;;;;;5156095;27;20049;-58
2021/05/23 00:11:53;;;;;;;11.48;2.00;;;8.30;99.90;;;;;;5174617;27;20077;-58
2021/05/23 00:14:20;;;;;;;12.10;2.78;;;8.30;99.90;;;;;;5174642;27;20087;-57
2021/05/23 00:16:47;;;;;;;12.80;2.78;;;8.30;99.90;;;;;;5174069;27;20491;-57
2021/05/23 00:19:13;;;;;;;9.63;2.25;;;8.20;99.90;;;;;;5174580;27;20190;-58
2021/05/23 00:21:39;;;;;;;9.40;2.53;;;8.10;99.90;;;;;;5174438;27;20075;-58
2021/05/23 00:24:06;;;;;;;8.07;2.28;;;8.10;99.90;;;;;;5174419;27;20039;-58
2021/05/23 00:26:33;;;;;;;7.38;2.10;;;8.00;99.90;;;;;;5174229;27;20552;-58
2021/05/23 00:28:59;;;;;;;8.05;2.42;;;7.90;99.90;;;;;;5174207;27;20050;-58
2021/05/23 00:31:25;;;;;;;12.98;2.58;;;7.90;99.90;;;;;;5174167;27;20049;-58
2021/05/23 00:33:50;;;;;;;11.50;2.95;;;7.80;99.90;;;;;;5174414;27;20551;-57
2021/05/23 00:36:16;;;;;;;9.05;2.38;;;7.90;99.90;;;;;;5174468;27;20069;-58
2021/05/23 00:38:44;;;;;;;10.93;3.33;;;7.80;99.90;;;;;;5177858;27;20073;-57
2021/05/23 00:41:11;;;;;;;8.02;2.38;;;7.80;99.90;;;;;;5178286;27;20452;-58
2021/05/23 00:43:37;;;;;;;8.52;2.50;;;7.70;99.90;;;;;;5178356;27;20050;-58
2021/05/23 00:46:03;;;;;;;8.63;2.60;;;7.80;99.90;;;;;;5178307;27;20135;-58
2021/05/23 00:48:29;;;;;;;12.25;2.45;;;7.80;99.90;;;;;;5178325;27;20053;-58
2021/05/23 00:50:56;;;;;;;14.38;2.10;;;7.70;99.90;;;;;;5178467;27;20042;-59
2021/05/23 00:53:22;;;;;;;10.07;1.95;;;7.70;99.90;;;;;;5178279;27;20088;-58
2021/05/23 00:55:48;;;;;;;16.60;2.45;;;7.70;99.90;;;;;;5178408;27;20061;-58
2021/05/23 00:58:14;;;;;;;10.68;2.88;;;7.70;99.90;;;;;;5178072;27;20372;-59
2021/05/23 01:00:40;;;;;;;8.52;2.05;;;7.60;99.90;;;;;;5177943;27;20049;-58
2021/05/23 01:03:24;;;;;;;12.27;2.17;;;7.60;99.90;;;;;;5177804;27;20038;-58
2021/05/23 01:05:55;;;;;;;13.98;2.45;;;7.50;99.90;;;;;;5177935;27;20129;-58
2021/05/23 01:08:22;;;;;;;10.88;2.45;;;7.40;99.90;;;;;;5177764;27;20128;-58
2021/05/23 01:11:08;;;;;;;9.35;2.20;;;7.40;99.90;;;;;;5177642;27;20034;-58
2021/05/23 01:13:34;;;;;;;8.45;2.10;;;7.50;99.90;;;;;;5177904;27;20094;-57
2021/05/23 01:16:06;;;;;;;12.77;3.22;;;7.40;99.90;;;;;;5177954;27;20046;-57
2021/05/23 01:18:50;;;;;;;8.40;2.65;;;7.40;99.90;;;;;;5177517;27;20483;-58
2021/05/23 01:21:17;;;;;;;9.75;2.30;;;7.30;99.90;;;;;;5177345;27;20395;-57
2021/05/23 01:23:47;;;;;;;8.10;2.35;;;7.40;99.90;;;;;;5177321;27;20467;-57
2021/05/23 01:26:14;;;;;;;12.32;2.85;;;7.30;99.90;;;;;;5177618;27;20046;-57
2021/05/23 01:29:01;;;;;;;8.95;2.58;;;7.30;99.90;;;;;;5177417;27;20046;-58
2021/05/23 01:31:29;;;;;;;7.47;1.83;;;7.30;99.90;;;;;;5177449;27;20050;-57
2021/05/23 01:33:57;;;;;;;8.68;2.20;;;7.40;99.90;;;;;;5177098;27;20395;-57
2021/05/23 01:36:35;;;;;;;13.03;2.57;;;7.40;99.90;;;;;;5177361;27;20758;-57
2021/05/23 01:39:06;;;;;;;7.30;2.67;;;7.40;99.90;;;;;;5177189;27;20753;-58
2021/05/23 01:41:32;;;;;;;10.20;2.72;;;7.40;99.90;;;;;;5177101;27;20468;-57
2021/05/23 01:43:59;;;;;;;10.18;2.50;;;7.50;99.90;;;;;;5177353;27;20074;-57
2021/05/23 01:46:26;;;;;;;11.98;2.60;;;7.50;99.90;;;;;;5177312;27;20050;-57
2021/05/23 01:48:52;;;;;;;9.77;2.83;;;7.50;99.90;;;;;;5176802;27;20038;-58
2021/05/23 01:51:18;;;;;;;13.75;2.40;;;7.60;99.90;;;;;;5177186;27;20049;-57
2021/05/23 01:53:44;;;;;;;10.02;2.90;;;7.60;99.90;;;;;;5177154;27;20041;-57
2021/05/23 01:56:09;;;;;;;11.63;2.65;;;7.50;99.90;;;;;;5176851;27;20538;-57
2021/05/23 01:58:36;;;;;;;6.53;2.33;;;7.60;99.90;;;;;;5176782;27;20138;-56
2021/05/23 02:01:03;;;;;;;10.90;2.95;;;7.50;99.90;;;;;;5176750;27;20071;-58
2021/05/23 02:03:29;;;;;;;6.82;2.17;;;7.50;99.90;;;;;;5176706;27;20039;-57
2021/05/23 02:05:58;;;;;;;11.35;2.75;;;7.50;99.90;;;;;;5176928;27;20074;-58
2021/05/23 02:08:25;;;;;;;6.77;2.27;;;7.40;99.90;;;;;;5176693;27;20106;-57
2021/05/23 02:10:53;;;;;;;10.65;2.20;;;7.40;99.90;;;;;;5176737;27;20309;-58
2021/05/23 02:13:20;;;;;;;7.65;2.65;;;7.40;99.90;;;;;;5176735;27;20428;-57
2021/05/23 02:15:46;;;;;;;13.40;3.08;;;7.50;99.90;;;;;;5176329;27;20053;-56
2021/05/23 02:18:12;;;;;;;8.38;2.40;;;7.40;99.90;;;;;;5176696;27;20069;-58
2021/05/23 02:20:38;;;;;;;10.55;2.63;;;7.50;99.90;;;;;;5176525;27;20148;-57
2021/05/23 02:23:11;;;;;;;10.45;2.40;;;7.50;99.90;;;;;;5176356;27;20535;-57
2021/05/23 02:25:37;;;;;;;5.18;2.22;;;7.50;99.90;;;;;;5176283;27;20053;-58
2021/05/23 02:28:06;;;;;;;13.55;3.28;;;7.50;99.90;;;;;;5176192;27;20034;-57
2021/05/23 02:30:39;;;;;;;;;;;7.40;99.90;;;;;;5157928;27;20046;-57
2021/05/23 02:33:07;;;;;;;14.60;2.55;;;7.40;99.90;;;;;;5176081;27;19919;-58
2021/05/23 02:35:35;;;;;;;6.63;2.42;;;7.40;99.90;;;;;;5176393;27;20137;-57
2021/05/23 02:38:03;;;;;;;13.07;2.60;;;7.30;99.90;;;;;;5176353;27;20094;-58
2021/05/23 02:40:29;;;;;;;7.18;2.35;;;7.30;99.90;;;;;;5175934;27;20082;-57
2021/05/23 02:42:57;;;;;;;7.57;2.10;;;7.20;99.90;;;;;;5175908;27;20046;-57
2021/05/23 02:45:24;;;;;;;10.25;3.28;;;7.20;99.90;;;;;;5176120;27;20049;-58
2021/05/23 02:47:52;;;;;;;11.23;2.92;;;7.10;99.90;;;;;;5175981;27;20093;-58
2021/05/23 02:50:21;;;;;;;11.82;3.10;;;7.10;99.90;;;;;;5175842;27;20042;-57
2021/05/23 02:52:47;;;;;;;7.05;3.03;;;7.00;99.90;;;;;;5175829;27;20038;-58
2021/05/23 02:55:16;;;;;;;6.28;2.40;;;7.00;99.90;;;;;;5175655;27;20501;-57
2021/05/23 02:57:42;;;;;;;7.50;2.78;;;7.00;99.90;;;;;;5175569;27;20129;-57
2021/05/23 03:00:12;;;;;;;9.93;3.25;;;6.90;99.90;;;;;;5175132;27;20046;-58
2021/05/23 03:02:38;;;;;;;7.00;3.13;;;6.90;99.90;;;;;;5174972;27;20498;-58
2021/05/23 03:05:06;;;;;;;12.65;2.95;;;6.90;99.90;;;;;;5175542;27;20038;-57
2021/05/23 03:07:38;;;;;;;8.30;3.35;;;6.90;99.90;;;;;;5175463;27;20038;-58
2021/05/23 03:10:06;;;;;;;9.35;3.17;;;6.90;99.90;;;;;;5156737;27;20034;-57
2021/05/23 03:12:31;;;;;;;13.27;3.42;;;6.90;99.90;;;;;;5175222;27;20041;-58
2021/05/23 03:14:57;;;;;;;12.05;3.40;;;6.90;99.90;;;;;;5175147;27;20042;-58
2021/05/23 03:17:23;;;;;;;7.28;3.00;;;6.80;99.90;;;;;;5175203;27;20038;-57
2021/05/23 03:19:48;;;;;;;11.35;3.13;;;6.90;99.90;;;;;;5175260;27;20190;-57
2021/05/23 03:22:14;;;;;;;13.10;3.67;;;6.90;99.90;;;;;;5175022;27;20042;-58
2021/05/23 03:24:40;;;;;;;14.70;3.45;;;6.90;99.90;;;;;;5175376;27;20085;-57
2021/05/23 03:27:06;;;;;;;10.95;3.60;;;7.00;99.90;;;;;;5175347;27;20432;-57
2021/05/23 03:29:31;;;;;;;13.32;3.60;;;7.00;99.90;;;;;;5174795;27;20077;-57
2021/05/23 03:31:57;;;;;;;12.05;3.38;;;7.00;99.90;;;;;;5175047;27;20046;-58
2021/05/23 03:34:23;;;;;;;9.43;3.08;;;7.10;99.90;;;;;;5175057;27;20042;-58
2021/05/23 03:36:49;;;;;;;10.95;3.10;;;7.00;99.90;;;;;;5175053;27;20081;-58
2021/05/23 03:39:15;;;;;;;11.32;4.07;;;7.10;99.90;;;;;;5175073;27;20061;-58
2021/05/23 03:41:41;;;;;;;13.35;3.08;;;7.10;99.90;;;;;;5175044;27;20065;-58
2021/05/23 03:44:07;;;;;;;11.10;3.58;;;7.10;99.90;;;;;;5174910;27;20046;-58
2021/05/23 03:46:33;;;;;;;10.77;3.10;;;7.20;99.90;;;;;;5174731;27;20050;-58
2021/05/23 03:48:59;;;;;;;12.50;3.72;;;7.20;99.90;;;;;;5174505;27;20054;-57
2021/05/23 03:51:26;;;;;;;10.75;3.20;;;7.10;99.90;;;;;;5174597;27;20062;-58
2021/05/23 03:53:52;;;;;;;9.98;3.75;;;7.10;99.90;;;;;;5174693;27;20042;-57
2021/05/23 03:56:17;;;;;;;12.85;3.13;;;7.20;99.90;;;;;;5174560;27;20045;-58
2021/05/23 03:58:43;;;;;;;10.45;4.00;;;7.20;99.90;;;;;;5174424;27;20117;-57
2021/05/23 04:01:09;;;;;;;7.88;3.20;;;7.20;99.90;;;;;;5174638;27;20046;-57
2021/05/23 04:03:34;;;;;;;8.85;4.05;;;7.30;99.90;;;;;;5174536;27;20479;-58
2021/05/23 04:06:00;;;;;;;8.95;3.08;;;7.30;99.90;;;;;;5174530;27;20053;-57
2021/05/23 04:08:26;;;;;;;6.18;2.88;;;7.30;99.90;;;;;;5174719;27;20098;-58
2021/05/23 04:11:13;;;;;;;9.93;3.35;;;7.40;99.90;;;;;;5174275;27;20034;-57
2021/05/23 04:13:41;;;;;;;7.55;3.08;;;7.40;99.90;;;;;;5178032;27;20035;-57
2021/05/23 04:16:08;;;;;;;11.45;2.97;;;7.50;99.90;;;;;;5179007;27;20038;-57
2021/05/23 04:18:33;;;;;;;9.52;3.17;;;7.40;99.90;;;;;;5178840;27;20045;-58
2021/05/23 04:20:59;;;;;;;11.52;3.10;;;7.50;99.90;;;;;;5178588;27;20038;-57
2021/05/23 04:23:25;;;;;;;7.25;2.90;;;7.50;99.90;;;;;;5178812;27;20133;-57
2021/05/23 04:25:51;;;;;;;15.40;4.30;;;7.60;99.90;;;;;;5178726;27;20026;-58
2021/05/23 04:28:18;;;;;;;10.75;2.78;;;7.60;99.90;;;;;;5178517;27;20166;-57
2021/05/23 04:30:43;;;;;;;10.10;3.30;;;7.60;99.90;;;;;;5178479;27;20050;-57
2021/05/23 04:33:09;;;;;;;12.65;2.80;;;7.60;99.90;;;;;;5178640;27;20822;-57
2021/05/23 04:35:35;;;;;;;19.02;3.38;;;7.70;99.90;;;;;;5178797;27;20746;-57
2021/05/23 04:38:01;;;;;;;12.18;3.30;;;7.70;99.90;;;;;;5178305;27;20375;-57
2021/05/23 04:40:28;;;;;;;11.02;3.88;;;7.70;99.90;;;;;;5178570;27;20125;-57
2021/05/23 04:42:54;;;;;;;10.13;3.15;;;7.80;99.90;;;;;;5178308;27;20403;-57
2021/05/23 04:45:21;;;;;;;10.57;2.70;;;7.80;99.90;;;;;;5178342;27;20046;-57
2021/05/23 04:47:48;;;;;;;12.05;2.63;;;7.90;99.90;;;;;;5178202;27;20054;-57
2021/05/23 04:50:14;;;;;;;7.80;3.55;;;8.00;99.90;;;;;;5178387;27;20042;-57
2021/05/23 04:52:40;;;;;;;12.23;3.13;;;8.10;99.90;;;;;;5178384;27;20042;-57
2021/05/23 04:55:07;;;;;;;7.82;2.80;;;8.10;99.90;;;;;;5178214;27;20065;-57
2021/05/23 04:57:33;;;;;;;11.93;3.35;;;8.20;99.90;;;;;;5178021;27;20199;-57
2021/05/23 04:59:59;;;;;;;7.18;3.00;;;8.20;99.90;;;;;;5177891;27;20038;-57
2021/05/23 05:02:25;;;;;;;7.60;2.90;;;8.30;99.90;;;;;;5177951;27;20073;-57
2021/05/23 05:04:51;;;;;;;8.38;2.83;;;8.30;99.90;;;;;;5159748;27;20070;-57
2021/05/23 05:07:17;;;;;;;10.43;2.97;;;8.30;99.90;;;;;;5177939;27;20046;-57
2021/05/23 05:09:43;;;;;;;8.15;2.92;;;8.40;99.90;;;;;;5177698;27;20044;-57
2021/05/23 05:12:09;;;;;;;11.20;3.22;;;8.40;99.90;;;;;;5177770;27;20094;-57
2021/05/23 05:14:35;;;;;;;9.02;3.00;;;8.50;99.90;;;;;;5177669;27;20088;-57
2021/05/23 05:17:01;;;;;;;9.70;3.35;;;8.50;99.90;;;;;;5177902;27;20069;-57
2021/05/23 05:19:27;;;;;;;13.45;3.50;;;8.50;99.90;;;;;;5177834;27;20039;-57
2021/05/23 05:21:53;;;;;;;7.97;2.75;;;8.60;99.90;;;;;;5177644;27;20042;-57
2021/05/23 05:24:19;;;;;;;9.88;3.33;;;8.80;99.90;;;;;;5177190;27;20186;-58
2021/05/23 05:26:45;;;;;;;10.52;3.17;;;9.00;99.90;;;;;;5177445;27;20042;-57
2021/05/23 05:29:11;;;;;;;7.28;3.30;;;9.00;99.90;;;;;;5177502;27;20086;-57
2021/05/23 05:31:37;;;;;;;13.38;3.78;;;9.10;99.90;;;;;;5177075;27;20101;-58
2021/05/23 05:34:03;;;;;;;7.43;2.88;;;9.10;99.90;;;;;;5177772;27;20142;-57
2021/05/23 05:36:29;;;;;;;7.82;3.00;;;9.20;99.90;;;;;;5177505;27;20046;-57
2021/05/23 05:38:55;;;;;;;6.68;3.05;;;9.20;99.90;;;;;;5177243;27;20053;-58
2021/05/23 05:41:21;;;;;;;8.07;3.05;;;9.30;99.90;;;;;;5177064;27;20073;-58
2021/05/23 05:43:48;;;;;;;9.60;3.42;;;9.40;99.90;;;;;;5177076;27;20050;-58
2021/05/23 05:46:14;;;;;;;11.48;3.33;;;9.60;99.90;;;;;;5176439;27;20034;-57
2021/05/23 05:48:41;;;;;;;11.50;2.90;;;9.80;99.90;;;;;;5177055;27;20042;-57
2021/05/23 05:51:07;;;;;;;4.88;2.60;;;10.00;99.90;;;;;;5177067;27;20384;-57
2021/05/23 05:53:34;;;;;;;8.98;2.40;;;10.00;99.90;;;;;;5177013;27;20070;-57
2021/05/23 05:56:00;;;;;;;9.70;2.97;;;10.00;99.90;;;;;;5176565;27;20062;-57
2021/05/23 05:58:26;;;;;;;15.85;4.15;;;10.10;99.90;;;;;;5176796;27;20046;-57
2021/05/23 06:00:52;;;;;;;7.18;2.47;;;10.10;99.90;;;;;;5176743;27;20065;-58
2021/05/23 06:03:18;;;;;;;11.43;2.58;;;10.30;99.90;;;;;;5176510;27;20030;-58
2021/05/23 06:05:44;;;;;;;14.55;3.00;;;10.40;99.90;;;;;;5173137;27;20475;-58
2021/05/23 06:08:09;;;;;;;7.78;2.30;;;10.60;99.90;;;;;;5155998;27;20043;-57
2021/05/23 06:10:35;;;;;;;7.82;2.55;;;10.80;99.90;;;;;;5137558;27;20066;-58
2021/05/23 06:13:01;;;;;;;5.15;2.08;;;10.80;99.90;;;;;;5155701;27;20043;-57
2021/05/23 06:15:28;;;;;;;9.20;2.85;;;11.00;99.90;;;;;;5155836;27;20061;-58
2021/05/23 06:17:53;;;;;;;10.93;2.78;;;11.10;99.90;;;;;;5158215;27;20042;-58
2021/05/23 06:20:19;;;;;;;8.38;2.42;;;11.20;99.90;;;;;;5155358;27;20527;-57
2021/05/23 06:22:45;;;;;;;7.00;2.22;;;11.40;99.90;;;;;;5155299;27;20049;-57
2021/05/23 06:25:11;;;;;;;10.30;2.50;;;11.60;99.90;;;;;;5155307;27;20365;-58
2021/05/23 06:27:37;;;;;;;8.10;2.60;;;12.00;99.90;;;;;;5155274;27;20038;-58
2021/05/23 06:30:05;;;;;;;11.15;2.60;;;12.00;99.90;;;;;;5155408;27;20379;-57
2021/05/23 06:32:31;;;;;;;10.45;2.60;;;11.90;99.90;;;;;;5154878;27;20526;-58
2021/05/23 06:34:56;;;;;;;8.77;2.47;;;12.00;99.90;;;;;;5154563;27;20039;-57
2021/05/23 06:37:22;;;;;;;5.53;2.42;;;12.10;99.90;;;;;;5155162;27;20038;-57
2021/05/23 06:39:48;;;;;;;13.15;3.15;;;12.00;99.90;;;;;;5154888;27;20396;-58
2021/05/23 06:42:14;;;;;;;11.38;3.72;;;12.20;99.90;;;;;;5154741;27;20070;-58
2021/05/23 06:44:40;;;;;;;7.10;2.30;;;12.20;99.90;;;;;;5154694;27;20042;-58
2021/05/23 06:47:06;;;;;;;5.85;1.95;;;12.20;99.90;;;;;;5155111;27;20035;-58
2021/05/23 06:49:32;;;;;;;6.90;2.33;;;12.30;99.90;;;;;;5154807;27;20042;-58
2021/05/23 06:51:59;;;;;;;9.05;2.08;;;12.30;99.90;;;;;;5154771;27;20043;-58
2021/05/23 06:54:26;;;;;;;4.80;2.00;;;12.20;99.90;;;;;;5154783;27;20057;-57
2021/05/23 06:56:52;;;;;;;9.70;2.63;;;12.20;99.90;;;;;;5154622;27;20066;-57
2021/05/23 06:59:17;;;;;;;10.07;2.50;;;12.10;99.90;;;;;;5135607;27;20488;-58
2021/05/23 07:01:43;;;;;;;8.45;2.53;;;12.00;99.90;;;;;;5135556;27;20043;-58
2021/05/23 07:04:09;;;;;;;6.80;1.98;;;11.90;99.90;;;;;;5154570;27;20057;-57
2021/05/23 07:06:35;;;;;;;7.05;2.25;;;11.80;99.90;;;;;;5154492;27;20407;-58
2021/05/23 07:09:01;;;;;;;6.43;2.13;;;11.80;99.90;;;;;;5154399;27;20027;-58
2021/05/23 07:11:27;;;;;;;6.18;1.92;;;11.90;99.90;;;;;;5154293;27;20038;-57
2021/05/23 07:13:53;;;;;;;6.95;1.92;;;11.90;99.90;;;;;;5154199;27;20046;-58
2021/05/23 07:16:19;;;;;;;15.60;2.88;;;12.10;99.90;;;;;;5154353;27;20046;-58
2021/05/23 07:18:45;;;;;;;10.38;2.35;;;12.40;99.90;;;;;;5154281;27;20057;-58
2021/05/23 07:21:10;;;;;;;7.75;2.25;;;12.50;99.90;;;;;;5154345;27;20090;-57
2021/05/23 07:23:37;;;;;;;3.72;1.92;;;12.60;99.90;;;;;;5154270;27;20090;-58
2021/05/23 07:26:03;;;;;;;8.80;2.05;;;12.50;99.90;;;;;;5154307;27;20074;-57
2021/05/23 07:28:29;;;;;;;8.60;2.40;;;12.70;99.90;;;;;;5153965;27;20038;-57
2021/05/23 07:30:54;;;;;;;7.60;2.75;;;12.70;99.90;;;;;;5153808;27;20045;-58
2021/05/23 07:33:20;;;;;;;9.00;1.90;;;12.80;99.90;;;;;;5153753;27;20085;-58
2021/05/23 07:35:46;;;;;;;11.80;2.60;;;12.80;99.90;;;;;;5153913;27;20049;-58
2021/05/23 07:38:12;;;;;;;9.88;2.50;;;12.80;99.90;;;;;;5154213;27;20054;-58
2021/05/23 07:40:38;;;;;;;5.97;1.70;;;12.80;99.90;;;;;;5153697;27;20046;-59
2021/05/23 07:43:04;;;;;;;6.18;1.67;;;12.80;99.90;;;;;;5153595;27;20129;-58
2021/05/23 07:45:30;;;;;;;4.18;1.88;;;12.60;99.90;;;;;;5153715;27;20043;-59
2021/05/23 07:47:56;;;;;;;3.72;1.50;;;12.60;99.90;;;;;;5153581;27;20038;-58
2021/05/23 07:50:23;;;;;;;4.35;1.30;;;12.60;99.90;;;;;;5153753;27;20065;-58
2021/05/23 07:52:49;;;;;;;6.15;1.38;;;12.50;99.90;;;;;;5153651;27;20046;-58
2021/05/23 07:55:15;;;;;;;5.65;1.50;;;12.50;99.90;;;;;;5153548;27;20046;-58
2021/05/23 07:57:41;;;;;;;5.95;1.67;;;12.50;99.90;;;;;;5153624;27;20031;-58
2021/05/23 08:00:08;;;;;;;4.90;1.10;;;12.40;99.90;;;;;;5153631;27;20043;-59
2021/05/23 08:02:34;;;;;;;5.97;1.20;;;12.40;99.90;;;;;;5153504;27;20046;-58
2021/05/23 08:05:00;;;;;;;7.95;1.55;;;12.40;99.90;;;;;;5153418;27;20047;-58
2021/05/23 08:07:26;;;;;;;8.32;1.98;;;12.50;99.90;;;;;;5153329;27;20031;-58
2021/05/23 08:09:51;;;;;;;6.65;1.67;;;12.70;99.90;;;;;;5153329;27;20083;-57
2021/05/23 08:12:18;;;;;;;6.72;1.77;;;12.80;99.90;;;;;;5153477;27;20122;-58
2021/05/23 08:14:45;;;;;;;9.05;1.63;;;12.80;99.90;;;;;;5153508;27;20129;-57
2021/05/23 08:17:12;;;;;;;3.75;1.65;;;12.80;99.90;;;;;;5153366;27;20131;-58
2021/05/23 08:19:37;;;;;;;7.00;1.85;;;12.80;99.90;;;;;;5153907;27;20046;-58
2021/05/23 08:22:03;;;;;;;3.97;1.58;;;12.90;99.90;;;;;;5153502;27;20615;-58
2021/05/23 08:24:31;;;;;;;8.48;2.15;;;12.80;99.90;;;;;;5153387;27;20039;-57
2021/05/23 08:26:58;;;;;;;10.23;2.75;;;12.90;99.90;;;;;;5153644;27;20046;-58
2021/05/23 08:29:24;;;;;;;9.50;3.78;;;12.80;99.90;;;;;;5153581;27;20857;-57
2021/05/23 08:31:50;;;;;;;9.98;3.47;;;12.70;99.90;;;;;;5153093;27;20054;-57
2021/05/23 08:34:15;;;;;;;6.60;2.63;;;12.60;99.90;;;;;;5153222;27;20042;-58
2021/05/23 08:36:41;;;;;;;6.43;3.33;;;12.60;99.90;;;;;;5153155;27;20107;-58
2021/05/23 08:39:07;;;;;;;14.43;4.60;;;12.50;99.90;;;;;;5134190;27;20046;-58
2021/05/23 08:41:33;;;;;;;8.70;4.35;;;12.40;99.90;;;;;;5134153;27;20038;-58
2021/05/23 08:43:59;;;;;;;11.40;4.30;;;12.40;99.90;;;;;;5134264;27;20516;-58
2021/05/23 08:46:32;;;;;;;10.35;4.00;;;12.30;99.90;;;;;;5153156;27;20043;-57
2021/05/23 08:49:00;;;;;;;12.38;4.55;;;12.20;99.90;;;;;;5153068;27;20039;-57
2021/05/23 08:51:28;;;;;;;10.77;4.35;;;12.10;99.90;;;;;;5153165;27;20069;-57
2021/05/23 08:53:53;;;;;;;10.50;4.60;;;12.10;99.90;;;;;;5153220;27;20045;-58
2021/05/23 08:56:20;;;;;;;12.48;3.85;;;12.00;99.90;;;;;;5152960;27;20043;-57
2021/05/23 08:58:45;;;;;;;11.27;4.38;;;12.00;99.90;;;;;;5154701;27;20038;-57
2021/05/23 09:01:24;;;;;;;13.25;4.25;;;12.00;99.90;;;;;;5156900;27;20038;-57
2021/05/23 09:04:04;;;;;;;11.13;4.22;;;11.80;99.90;;;;;;5156713;27;20053;-58
2021/05/23 09:06:35;;;;;;;11.77;3.80;;;11.90;99.90;;;;;;5157458;27;20370;-58
2021/05/23 09:09:08;;;;;;;12.30;4.53;;;11.90;99.90;;;;;;5156874;27;20071;-58
2021/05/23 09:11:35;;;;;;;11.27;4.05;;;11.80;99.90;;;;;;5156279;27;20069;-58
2021/05/23 09:14:04;;;;;;;10.32;4.57;;;11.80;99.90;;;;;;5156609;27;20039;-58
2021/05/23 09:16:37;;;;;;;10.45;4.03;;;11.80;99.90;;;;;;5147830;27;20070;-55
2021/05/23 09:19:04;;;;;;;13.57;4.65;;;11.70;99.90;;;;;;5090699;28;20067;-56
2021/05/23 09:21:38;;;;;;;13.18;5.00;;;11.80;99.90;;;;;;5093318;28;20043;-56
2021/05/23 09:24:09;;;;;;;10.77;4.57;;;11.70;99.90;;;;;;5094095;28;20040;-56
2021/05/23 09:26:44;;;;;;;11.82;4.53;;;11.60;99.90;;;;;;5094311;28;20069;-56
2021/05/23 09:29:19;;;;;;;11.82;5.03;;;11.40;99.90;;;;;;5094342;28;20048;-58
2021/05/23 09:31:48;;;;;;;13.63;5.57;;;11.30;99.90;;;;;;5094279;28;20074;-58
2021/05/23 09:34:25;;;;;;;9.57;4.53;;;11.40;99.90;;;;;;5094189;28;20122;-57
2021/05/23 09:36:52;;;;;;;19.15;5.53;;;11.40;99.90;;;;;;5089190;28;20055;-58
2021/05/23 09:39:18;;;;;;;14.73;5.90;;;11.40;99.90;;;;;;5093973;28;20032;-58
2021/05/23 09:41:45;;;;;;;11.52;5.55;;;11.40;99.90;;;;;;5094439;28;20036;-58
2021/05/23 09:44:18;;;;;;;15.35;5.88;;;11.40;99.90;;;;;;5094671;28;20044;-57
2021/05/23 09:46:52;;;;;;;15.02;5.72;;;11.40;99.90;;;;;;5094667;28;20040;-58
2021/05/23 09:49:19;;;;;;;10.20;6.40;;;11.30;99.90;;;;;;5094523;28;20036;-58
2021/05/23 09:52:09;;;;;;;11.98;6.18;;;11.20;99.90;;;;;;5094396;28;20063;-57
2021/05/23 09:54:52;;;;;;;11.02;5.90;;;11.30;99.90;;;;;;5094303;28;20482;-58
2021/05/23 09:57:20;;;;;;;11.95;5.50;;;11.30;99.90;;;;;;5094461;28;20438;-58
2021/05/23 09:59:57;;;;;;;6.70;4.07;;;11.30;99.90;;;;;;5094247;28;20051;-58
2021/05/23 10:02:23;;;;;;;6.82;3.90;;;11.10;99.90;;;;;;5094007;28;20047;-58
2021/05/23 10:04:49;;;;;;;5.53;4.00;;;11.10;99.90;;;;;;5094059;28;20040;-58
2021/05/23 10:07:14;;;;;;;7.50;5.07;;;11.20;99.90;;;;;;5094371;28;20040;-59
2021/05/23 10:09:40;;;;;;;6.85;4.65;;;11.20;99.90;;;;;;5092980;28;20042;-58
2021/05/23 10:12:10;;;;;;;5.95;4.30;;;11.20;99.90;;;;;;5093897;28;20481;-58
2021/05/23 10:14:37;;;;;;;10.85;5.68;;;11.20;99.90;;;;;;5094098;28;20401;-58
2021/05/23 10:17:07;;;;;;;9.57;5.35;;;11.10;99.90;;;;;;5090340;28;20512;-58
2021/05/23 10:19:34;;;;;;;7.70;4.72;;;10.90;99.90;;;;;;5093753;28;20474;-59
2021/05/23 10:22:03;;;;;;;10.15;5.07;;;10.80;99.90;;;;;;5093755;28;20044;-59
2021/05/23 10:24:39;;;;;;;6.50;5.07;;;10.70;99.90;;;;;;5093714;28;20044;-59
2021/05/23 10:27:10;;;;;;;6.13;5.13;;;10.80;99.90;;;;;;5093307;28;20123;-59
2021/05/23 10:29:41;;;;;;;8.43;6.20;;;10.70;99.90;;;;;;5093392;28;20040;-59
2021/05/23 10:32:13;;;;;;;8.75;6.22;;;10.80;99.90;;;;;;5093424;28;20138;-59
2021/05/23 10:34:46;;;;;;;7.82;5.47;;;10.80;99.90;;;;;;5108219;28;20402;-59
2021/05/23 10:37:14;;;;;;;9.75;6.82;;;10.80;99.90;;;;;;5093572;28;20036;-60
2021/05/23 10:39:43;;;;;;;11.35;5.97;;;10.90;99.90;;;;;;5093465;28;20044;-59
2021/05/23 10:42:13;;;;;;;6.60;4.22;;;10.90;99.90;;;;;;5093116;28;20121;-59
2021/05/23 10:44:48;;;;;;;6.05;3.47;;;10.80;99.90;;;;;;5093557;28;20051;-59
2021/05/23 10:47:15;;;;;;;4.75;3.22;;;10.80;99.90;;;;;;5093398;28;20072;-59
2021/05/23 10:50:03;;;;;;;6.53;3.45;;;10.80;99.90;;;;;;5093278;28;20444;-60
2021/05/23 10:52:31;;;;;;;5.75;2.83;;;10.80;99.90;;;;;;5093038;28;20142;-59
2021/05/23 10:54:56;;;;;;;4.50;2.95;;;10.80;99.90;;;;;;5093220;28;20036;-59
2021/05/23 10:57:22;;;;;;;4.28;3.60;;;10.90;99.90;;;;;;5092918;28;20035;-59
2021/05/23 11:00:03;;;;;;;5.05;3.60;;;10.90;99.90;;;;;;5093162;28;20040;-58
2021/05/23 11:02:40;;;;;;;5.25;2.90;;;11.10;99.90;;;;;;5092889;28;20122;-59
2021/05/23 11:05:08;;;;;;;4.28;3.20;;;11.10;99.90;;;;;;5092846;28;20048;-58
2021/05/23 11:07:34;;;;;;;3.78;2.70;;;11.20;99.90;;;;;;5093005;28;20452;-59
2021/05/23 11:10:01;;;;;;;4.43;3.20;;;11.30;99.90;;;;;;5092921;28;20048;-59
2021/05/23 11:12:27;;;;;;;5.45;3.10;;;11.50;99.90;;;;;;5092659;28;20140;-59
2021/05/23 11:14:57;;;;;;;3.20;2.65;;;11.60;99.90;;;;;;5092829;28;20131;-59
2021/05/23 11:17:22;;;;;;;3.83;2.00;;;11.80;99.90;;;;;;5092572;28;20051;-58
2021/05/23 11:19:48;;;;;;;4.03;2.78;;;11.90;99.90;;;;;;5091386;28;20389;-60
2021/05/23 11:22:14;;;;;;;4.05;2.58;;;12.20;99.90;;;;;;5092135;28;20040;-59
2021/05/23 11:24:45;;;;;;;2.78;2.58;;;12.40;99.90;;;;;;5092620;28;20436;-60
2021/05/23 11:27:13;;;;;;;2.78;2.55;;;12.60;99.90;;;;;;5092853;28;20040;-59
2021/05/23 11:29:44;;;;;;;4.33;2.70;;;12.80;99.90;;;;;;5092908;28;20069;-59
2021/05/23 11:32:12;;;;;;;2.35;2.10;;;13.20;99.90;;;;;;5092382;28;20321;-59
2021/05/23 11:34:37;;;;;;;3.47;2.25;;;13.30;99.90;;;;;;5092398;28;20040;-59
2021/05/23 11:37:03;;;;;;;2.28;2.08;;;13.40;99.90;;;;;;5092463;28;20493;-59
2021/05/23 11:39:31;;;;;;;2.60;2.40;;;13.50;99.90;;;;;;5092320;28;20046;-59
2021/05/23 11:41:58;;;;;;;2.45;2.25;;;13.50;99.90;;;;;;5092230;28;20059;-59
2021/05/23 11:44:37;;;;;;;3.08;2.78;;;13.60;99.90;;;;;;5092290;28;20039;-59
2021/05/23 11:47:03;;;;;;;3.58;3.20;;;13.70;99.90;;;;;;5092436;28;20101;-59
2021/05/23 11:49:30;;;;;;;3.53;3.15;;;13.80;99.90;;;;;;5092357;28;20047;-60
2021/05/23 11:52:01;;;;;;;3.60;3.10;;;13.80;99.90;;;;;;5092271;28;20122;-59
2021/05/23 11:54:27;;;;;;;3.50;3.20;;;13.70;99.90;;;;;;5091977;28;20063;-59
2021/05/23 11:56:53;;;;;;;3.55;3.25;;;13.70;99.90;;;;;;5092077;28;20044;-59
2021/05/23 11:59:19;;;;;;;3.65;3.05;;;13.70;99.90;;;;;;5090393;28;20052;-59
2021/05/23 12:01:51;;;;;;;3.75;3.05;;;13.50;99.90;;;;;;5092157;28;20067;-59
2021/05/23 12:04:18;;;;;;;3.28;2.97;;;13.40;99.90;;;;;;5092334;28;20075;-59
2021/05/23 12:06:53;;;;;;;3.75;2.70;;;13.40;99.90;;;;;;5091888;28;20036;-59
2021/05/23 12:09:31;;;;;;;2.67;2.47;;;13.30;99.90;;;;;;5092004;28;20036;-58
2021/05/23 12:12:01;;;;;;;2.97;2.65;;;13.40;99.90;;;;;;5091935;28;20529;-58
2021/05/23 12:14:32;;;;;;;3.38;3.00;;;13.40;99.90;;;;;;5092392;28;20040;-60
2021/05/23 12:17:05;;;;;;;4.18;3.50;;;13.20;99.90;;;;;;5091735;28;20062;-59
2021/05/23 12:19:53;;;;;;;4.53;3.47;;;13.10;99.90;;;;;;5091496;28;20119;-58
2021/05/23 12:22:20;;;;;;;5.03;3.88;;;12.80;99.90;;;;;;5091821;28;20370;-59
2021/05/23 12:24:54;;;;;;;6.18;4.15;;;12.80;99.90;;;;;;5091853;28;20150;-59
2021/05/23 12:27:33;;;;;;;3.40;3.00;;;12.70;99.90;;;;;;5091761;28;20551;-58
2021/05/23 12:30:06;;;;;;;3.40;2.83;;;12.50;99.90;;;;;;5091855;28;20040;-58
2021/05/23 12:32:53;;;;;;;2.92;2.40;;;12.50;99.90;;;;;;5091509;28;20309;-59
2021/05/23 12:35:23;;;;;;;2.33;2.00;;;12.50;99.90;;;;;;5096096;28;20102;-59
2021/05/23 12:37:57;;;;;;;3.13;2.05;;;12.60;99.90;;;;;;5095757;28;20489;-59
2021/05/23 12:40:32;;;;;;;2.90;2.17;;;12.60;99.90;;;;;;5095682;28;20063;-58
2021/05/23 12:43:28;;;;;;;3.60;2.40;;;12.70;99.90;;;;;;5095676;28;20063;-59
2021/05/23 12:45:59;;;;;;;2.22;2.00;;;12.80;99.90;;;;;;5095753;28;20047;-58
2021/05/23 12:48:39;;;;;;;3.42;1.98;;;12.90;99.90;;;;;;5095733;28;20047;-59
2021/05/23 12:51:16;;;;;;;3.50;2.40;;;12.80;99.90;;;;;;5095353;28;20505;-59
2021/05/23 12:53:44;;;;;;;2.67;2.30;;;12.80;99.90;;;;;;5095738;28;20105;-58